createdAt,value
2018-07-19T00:01:27.626Z,6.60
2018-07-19T00:04:09.456Z,5.97
2018-07-19T00:06:49.258Z,5.50
2018-07-19T00:09:29.983Z,5.73
2018-07-19T00:12:10.332Z,5.63
2018-07-19T00:14:51.464Z,5.70
2018-07-19T00:17:39.215Z,6.30
2018-07-19T00:20:22.520Z,5.93
2018-07-19T00:23:02.216Z,5.73
2018-07-19T00:25:44.560Z,6.03
2018-07-19T00:28:25.685Z,4.93
2018-07-19T00:31:05.253Z,6.50
2018-07-19T00:33:46.354Z,6.30
2018-07-19T00:36:26.155Z,4.47
2018-07-19T00:39:09.673Z,5.50
2018-07-19T00:41:53.740Z,5.20
2018-07-19T00:44:31.889Z,6.00
2018-07-19T00:47:10.440Z,4.60
2018-07-19T00:49:50.458Z,6.30
2018-07-19T00:52:30.499Z,6.30
2018-07-19T00:55:11.303Z,5.73
2018-07-19T00:57:54.228Z,6.00
2018-07-19T01:00:35.514Z,6.07
2018-07-19T01:03:21.773Z,6.00
2018-07-19T01:06:04.620Z,6.00
2018-07-19T01:08:45.851Z,6.22
2018-07-19T01:11:27.590Z,6.20
2018-07-19T01:14:08.996Z,6.63
2018-07-19T01:16:48.502Z,6.00
2018-07-19T01:19:28.878Z,6.40
2018-07-19T01:22:09.535Z,5.10
2018-07-19T01:25:09.233Z,5.70
2018-07-19T01:27:50.541Z,5.63
2018-07-19T01:30:31.999Z,6.00
2018-07-19T01:33:13.336Z,5.85
2018-07-19T01:35:56.890Z,5.50
2018-07-19T01:38:49.833Z,5.53
2018-07-19T01:42:14.556Z,5.53
2018-07-19T01:44:54.184Z,6.63
2018-07-19T01:47:35.396Z,6.83
2018-07-19T01:50:16.062Z,7.43
2018-07-19T01:52:55.531Z,6.60
2018-07-19T01:55:35.306Z,5.90
2018-07-19T01:58:14.426Z,5.97
2018-07-19T02:00:56.037Z,5.97
2018-07-19T02:03:38.044Z,5.87
2018-07-19T02:06:18.533Z,6.67
2018-07-19T02:08:58.937Z,6.10
2018-07-19T02:11:39.383Z,6.00
2018-07-19T02:14:20.322Z,6.53
2018-07-19T02:16:57.704Z,4.80
2018-07-19T02:19:36.569Z,5.72
2018-07-19T02:22:14.434Z,6.30
2018-07-19T02:24:52.499Z,6.78
2018-07-19T02:27:31.436Z,6.87
2018-07-19T02:30:08.392Z,7.60
2018-07-19T02:32:46.099Z,6.67
2018-07-19T02:35:26.584Z,5.87
2018-07-19T02:38:04.041Z,5.33
2018-07-19T02:40:41.328Z,6.57
2018-07-19T02:43:20.372Z,6.80
2018-07-19T02:45:58.236Z,7.13
2018-07-19T02:48:35.936Z,7.33
2018-07-19T02:51:14.563Z,7.17
2018-07-19T02:53:52.047Z,6.80
2018-07-19T02:56:30.284Z,6.80
2018-07-19T02:59:11.048Z,5.93
2018-07-19T03:01:50.212Z,7.30
2018-07-19T03:04:28.764Z,6.97
2018-07-19T03:07:07.248Z,7.93
2018-07-19T03:09:45.581Z,8.40
2018-07-19T03:12:22.850Z,6.50
2018-07-19T03:15:03.289Z,7.00
2018-07-19T03:17:41.456Z,7.40
2018-07-19T03:20:20.524Z,7.40
2018-07-19T03:22:59.200Z,6.87
2018-07-19T03:25:37.621Z,7.20
2018-07-19T03:28:19.553Z,7.10
2018-07-19T03:30:57.989Z,8.40
2018-07-19T03:33:36.420Z,8.13
2018-07-19T03:36:16.084Z,7.83
2018-07-19T03:38:53.408Z,8.47
2018-07-19T03:41:32.660Z,8.03
2018-07-19T03:44:11.440Z,8.50
2018-07-19T03:46:49.600Z,9.57
2018-07-19T03:49:27.746Z,9.10
2018-07-19T03:52:05.721Z,8.63
2018-07-19T03:54:43.136Z,10.33
2018-07-19T03:57:20.453Z,11.03
2018-07-19T03:59:58.153Z,9.68
2018-07-19T04:02:35.579Z,7.97
2018-07-19T04:05:12.875Z,11.37
2018-07-19T04:07:51.137Z,9.60
2018-07-19T04:10:28.336Z,8.03
2018-07-19T04:13:05.883Z,9.43
2018-07-19T04:15:45.253Z,8.70
2018-07-19T04:18:22.576Z,8.10
2018-07-19T04:21:00.697Z,9.03
2018-07-19T04:23:39.876Z,8.40
2018-07-19T04:26:17.668Z,9.37
2018-07-19T04:28:54.851Z,11.27
2018-07-19T04:31:32.808Z,8.30
2018-07-19T04:34:10.035Z,9.00
2018-07-19T04:36:47.293Z,8.07
2018-07-19T04:39:25.844Z,7.87
2018-07-19T04:42:04.436Z,7.60
2018-07-19T04:44:41.868Z,7.23
2018-07-19T04:47:20.553Z,7.35
2018-07-19T04:49:58.127Z,6.63
2018-07-19T04:52:36.980Z,6.70
2018-07-19T04:55:17.089Z,6.07
2018-07-19T04:57:55.368Z,6.50
2018-07-19T05:00:32.744Z,6.50
2018-07-19T05:03:12.024Z,6.13
2018-07-19T05:05:51.799Z,6.60
2018-07-19T05:08:29.360Z,5.70
2018-07-19T05:11:13.052Z,6.37
2018-07-19T05:13:52.445Z,5.07
2018-07-19T05:16:30.640Z,6.60
2018-07-19T05:19:10.403Z,6.20
2018-07-19T05:21:47.812Z,5.97
2018-07-19T05:24:26.227Z,6.50
2018-07-19T05:27:07.696Z,5.50
2018-07-19T05:29:47.297Z,6.63
2018-07-19T05:32:25.945Z,6.40
2018-07-19T05:35:04.396Z,5.40
2018-07-19T05:37:42.946Z,5.67
2018-07-19T05:40:20.754Z,5.80
2018-07-19T05:42:59.332Z,6.40
2018-07-19T05:45:38.394Z,5.37
2018-07-19T05:48:17.678Z,4.47
2018-07-19T05:50:55.553Z,5.33
2018-07-19T05:53:33.705Z,5.20
2018-07-19T05:56:11.508Z,4.20
2018-07-19T05:58:51.402Z,4.50
2018-07-19T06:01:31.331Z,4.45
2018-07-19T06:04:15.422Z,3.80
2018-07-19T06:06:56.428Z,3.80
2018-07-19T06:09:39.505Z,4.32
2018-07-19T06:12:17.493Z,4.23
2018-07-19T06:14:54.548Z,3.80
2018-07-19T06:17:33.120Z,3.90
2018-07-19T06:20:11.341Z,3.60
2018-07-19T06:22:48.674Z,3.90
2018-07-19T06:25:28.912Z,5.13
2018-07-19T06:28:14.711Z,4.07
2018-07-19T06:30:54.183Z,4.23
2018-07-19T06:33:35.698Z,4.15
2018-07-19T06:36:15.965Z,3.20
2018-07-19T06:38:56.240Z,3.00
2018-07-19T06:41:34.733Z,2.90
2018-07-19T06:44:12.033Z,2.53
2018-07-19T06:46:50.943Z,2.30
2018-07-19T06:49:31.324Z,2.53
2018-07-19T06:52:09.557Z,2.20
2018-07-19T06:54:47.461Z,2.23
2018-07-19T06:57:27.389Z,2.70
2018-07-19T07:00:07.455Z,2.30
2018-07-19T07:02:45.084Z,2.23
2018-07-19T07:05:22.732Z,2.28
2018-07-19T07:08:00.961Z,2.40
2018-07-19T07:10:43.948Z,2.50
2018-07-19T07:13:21.388Z,2.00
2018-07-19T07:16:01.849Z,2.20
2018-07-19T07:18:41.023Z,2.00
2018-07-19T07:21:19.302Z,2.30
2018-07-19T07:23:58.083Z,2.20
2018-07-19T07:26:35.348Z,2.10
2018-07-19T07:29:14.590Z,2.20
2018-07-19T07:31:54.897Z,2.70
2018-07-19T07:34:33.670Z,2.80
2018-07-19T07:37:11.241Z,2.50
2018-07-19T07:39:48.765Z,2.40
2018-07-19T07:42:27.928Z,2.20
2018-07-19T07:45:13.686Z,2.70
2018-07-19T07:47:54.054Z,2.53
2018-07-19T07:50:33.508Z,2.93
2018-07-19T07:53:11.291Z,2.50
2018-07-19T07:55:50.693Z,2.07
2018-07-19T07:58:28.960Z,2.30
2018-07-19T08:01:08.836Z,2.17
2018-07-19T08:03:49.068Z,2.20
2018-07-19T08:06:26.714Z,2.20
2018-07-19T08:09:08.924Z,2.43
2018-07-19T08:11:47.277Z,2.17
2018-07-19T08:14:25.930Z,2.23
2018-07-19T08:17:07.321Z,2.47
2018-07-19T08:19:46.471Z,2.10
2018-07-19T08:22:24.792Z,2.37
2018-07-19T08:25:07.124Z,2.20
2018-07-19T08:27:46.728Z,2.33
2018-07-19T08:30:25.528Z,2.80
2018-07-19T08:33:05.069Z,2.62
2018-07-19T08:35:44.502Z,2.50
2018-07-19T08:38:22.872Z,2.30
2018-07-19T08:41:01.476Z,2.50
2018-07-19T08:43:40.329Z,2.50
2018-07-19T08:46:19.992Z,2.43
2018-07-19T08:48:59.345Z,2.90
2018-07-19T08:51:37.727Z,2.20
2018-07-19T08:54:15.075Z,2.97
2018-07-19T08:56:55.794Z,2.73
2018-07-19T08:59:35.340Z,2.43
2018-07-19T09:02:12.731Z,2.30
2018-07-19T09:04:51.879Z,2.63
2018-07-19T09:07:29.707Z,2.53
2018-07-19T09:10:09.524Z,2.80
2018-07-19T09:12:49.471Z,2.70
2018-07-19T09:15:29.696Z,2.40
2018-07-19T09:18:12.310Z,2.63
2018-07-19T09:20:50.949Z,2.60
2018-07-19T09:23:29.256Z,2.70
2018-07-19T09:26:11.306Z,2.67
2018-07-19T09:28:51.539Z,2.70
2018-07-19T09:31:31.806Z,2.57
2018-07-19T09:34:09.485Z,2.63
2018-07-19T09:36:51.224Z,2.67
2018-07-19T09:39:31.115Z,2.55
2018-07-19T09:42:14.035Z,2.63
2018-07-19T09:44:54.115Z,2.67
2018-07-19T09:47:33.638Z,2.70
2018-07-19T09:53:23.955Z,2.78
2018-07-19T09:56:04.549Z,2.73
2018-07-19T09:58:42.620Z,2.47
2018-07-19T10:01:23.576Z,2.20
2018-07-19T10:04:02.451Z,26.63
2018-07-19T10:06:41.627Z,7.37
2018-07-19T10:09:24.173Z,3.67
2018-07-19T10:12:06.763Z,67.23
2018-07-19T10:14:44.467Z,5.67
2018-07-19T10:17:25.248Z,7.70
2018-07-19T10:20:05.789Z,110.90
2018-07-19T10:22:45.818Z,57.80
2018-07-19T10:25:29.501Z,58.67
2018-07-19T10:28:06.941Z,95.03
2018-07-19T10:30:45.524Z,110.80
2018-07-19T10:33:27.023Z,21.97
2018-07-19T10:36:09.363Z,4.67
2018-07-19T10:38:46.952Z,3.50
2018-07-19T10:41:25.746Z,4.27
2018-07-19T10:44:04.344Z,3.35
2018-07-19T10:46:44.327Z,3.90
2018-07-19T10:49:21.889Z,2.97
2018-07-19T10:51:59.448Z,3.00
2018-07-19T10:54:37.813Z,2.87
2018-07-19T10:57:16.560Z,3.40
2018-07-19T10:59:54.075Z,3.90
2018-07-19T11:02:32.523Z,3.10
2018-07-19T11:05:10.744Z,2.70
2018-07-19T11:07:48.301Z,3.23
2018-07-19T11:10:26.089Z,2.83
2018-07-19T11:13:06.363Z,3.97
2018-07-19T11:15:43.646Z,2.80
2018-07-19T11:18:24.378Z,3.00
2018-07-19T11:21:02.723Z,2.80
2018-07-19T11:23:41.933Z,3.47
2018-07-19T11:26:27.956Z,3.20
2018-07-19T11:29:07.403Z,3.50
2018-07-19T11:31:47.521Z,3.40
2018-07-19T11:34:26.560Z,3.20
2018-07-19T11:37:03.768Z,2.60
2018-07-19T11:39:42.043Z,3.13
2018-07-19T11:42:20.981Z,3.10
2018-07-19T11:44:58.511Z,2.87
2018-07-19T11:47:37.737Z,3.00
2018-07-19T11:50:17.890Z,3.00
2018-07-19T11:52:57.760Z,2.57
2018-07-19T11:55:39.871Z,2.70
2018-07-19T11:58:17.392Z,2.97
2018-07-19T12:00:56.460Z,3.00
2018-07-19T12:03:39.449Z,2.63
2018-07-19T12:06:23.589Z,2.67
2018-07-19T12:09:07.888Z,2.80
2018-07-19T12:11:47.609Z,3.00
2018-07-19T12:14:33.071Z,2.80
2018-07-19T12:17:10.330Z,2.70
2018-07-19T12:19:49.076Z,2.60
2018-07-19T12:22:28.188Z,2.43
2018-07-19T12:25:06.744Z,2.73
2018-07-19T12:27:45.074Z,3.03
2018-07-19T12:30:24.069Z,2.40
2018-07-19T12:33:01.797Z,2.60
2018-07-19T12:35:39.223Z,2.93
2018-07-19T12:38:18.218Z,2.77
2018-07-19T12:40:58.507Z,2.90
2018-07-19T12:43:37.392Z,2.40
2018-07-19T12:46:17.823Z,2.97
2018-07-19T12:48:56.935Z,2.90
2018-07-19T12:51:35.305Z,3.05
2018-07-19T12:54:13.180Z,3.17
2018-07-19T12:56:52.084Z,3.40
2018-07-19T12:59:29.550Z,3.10
2018-07-19T13:02:11.284Z,3.00
2018-07-19T13:04:50.416Z,2.80
2018-07-19T13:07:27.759Z,2.80
2018-07-19T13:10:08.127Z,2.60
2018-07-19T13:12:46.729Z,3.13
2018-07-19T13:15:25.878Z,2.40
2018-07-19T13:18:03.690Z,2.60
2018-07-19T13:20:43.629Z,2.87
2018-07-19T13:23:26.239Z,2.70
2018-07-19T13:26:04.503Z,2.70
2018-07-19T13:28:42.676Z,2.67
2018-07-19T13:31:23.296Z,2.80
2018-07-19T13:34:01.152Z,3.10
2018-07-19T13:36:39.323Z,3.00
2018-07-19T13:39:17.304Z,2.50
2018-07-19T13:41:55.771Z,2.70
2018-07-19T13:44:33.831Z,2.50
2018-07-19T13:47:12.060Z,3.03
2018-07-19T13:49:53.289Z,2.30
2018-07-19T13:52:54.773Z,2.73
2018-07-19T13:55:32.601Z,2.50
2018-07-19T13:58:10.900Z,2.30
2018-07-19T14:00:48.691Z,2.40
2018-07-19T14:03:26.326Z,3.07
2018-07-19T14:06:08.760Z,2.83
2018-07-19T14:08:47.301Z,2.87
2018-07-19T14:11:24.472Z,2.83
2018-07-19T14:14:03.275Z,2.63
2018-07-19T14:16:42.803Z,2.97
2018-07-19T14:19:20.301Z,2.53
2018-07-19T14:22:03.282Z,2.67
2018-07-19T14:24:48.304Z,2.83
2018-07-19T14:27:28.329Z,2.80
2018-07-19T14:30:11.960Z,2.80
2018-07-19T14:32:56.637Z,3.10
2018-07-19T14:35:39.644Z,3.13
2018-07-19T14:38:17.373Z,2.92
2018-07-19T14:40:56.501Z,2.70
2018-07-19T14:43:42.247Z,3.17
2018-07-19T14:46:22.768Z,3.20
2018-07-19T14:49:09.580Z,3.40
2018-07-19T14:51:47.771Z,3.53
2018-07-19T14:54:26.644Z,2.92
2018-07-19T14:57:05.276Z,2.50
2018-07-19T14:59:44.520Z,2.70
2018-07-19T15:02:22.704Z,3.20
2018-07-19T15:05:05.944Z,3.00
2018-07-19T15:07:43.347Z,3.00
2018-07-19T15:10:22.416Z,3.43
2018-07-19T15:13:01.578Z,3.33
2018-07-19T15:15:41.013Z,3.10
2018-07-19T15:18:19.712Z,2.83
2018-07-19T15:21:02.878Z,3.40
2018-07-19T15:23:41.699Z,2.97
2018-07-19T15:26:20.217Z,3.27
2018-07-19T15:29:00.256Z,3.10
2018-07-19T15:31:39.215Z,3.53
2018-07-19T15:34:20.054Z,3.57
2018-07-19T15:36:57.525Z,3.00
2018-07-19T15:39:37.324Z,3.33
2018-07-19T15:42:21.081Z,3.50
2018-07-19T15:45:06.317Z,2.90
2018-07-19T15:47:48.200Z,3.17
2018-07-19T15:50:44.873Z,3.93
2018-07-19T15:53:27.650Z,3.13
2018-07-19T15:56:13.520Z,3.60
2018-07-19T15:58:52.486Z,3.70
2018-07-19T16:01:31.121Z,3.00
2018-07-19T16:04:08.576Z,3.40
2018-07-19T16:06:49.337Z,3.23
2018-07-19T16:09:28.499Z,3.57
2018-07-19T16:12:07.968Z,4.23
2018-07-19T16:14:47.525Z,3.50
2018-07-19T16:17:28.756Z,4.33
2018-07-19T16:20:09.792Z,3.30
2018-07-19T16:22:52.741Z,4.50
2018-07-19T16:25:30.331Z,6.18
2018-07-19T16:28:07.883Z,7.03
2018-07-19T16:30:47.350Z,9.30
2018-07-19T16:33:27.754Z,3.97
2018-07-19T16:36:08.782Z,3.93
2018-07-19T16:38:56.104Z,4.17
2018-07-19T16:41:37.308Z,4.03
2018-07-19T16:44:16.944Z,4.10
2018-07-19T16:46:57.438Z,3.80
2018-07-19T16:49:37.977Z,4.07
2018-07-19T16:52:16.053Z,4.13
2018-07-19T16:54:55.701Z,3.40
2018-07-19T16:57:34.038Z,3.60
2018-07-19T17:00:18.002Z,3.50
2018-07-19T17:02:56.106Z,3.72
2018-07-19T17:05:34.370Z,4.27
2018-07-19T17:08:12.203Z,3.43
2018-07-19T17:10:49.824Z,3.60
2018-07-19T17:13:27.126Z,3.53
2018-07-19T17:16:07.152Z,3.60
2018-07-19T17:18:46.498Z,3.83
2018-07-19T17:21:25.817Z,3.83
2018-07-19T17:24:04.269Z,3.87
2018-07-19T17:26:41.722Z,3.77
2018-07-19T17:29:21.221Z,3.70
2018-07-19T17:31:59.863Z,3.80
2018-07-19T17:34:38.203Z,3.67
2018-07-19T17:37:17.115Z,3.67
2018-07-19T17:39:55.220Z,3.37
2018-07-19T17:42:34.043Z,3.70
2018-07-19T17:45:22.542Z,3.57
2018-07-19T17:48:01.761Z,3.60
2018-07-19T17:50:41.327Z,3.43
2018-07-19T17:53:22.303Z,3.20
2018-07-19T17:56:01.893Z,3.20
2018-07-19T17:58:41.112Z,3.43
2018-07-19T18:01:21.569Z,3.33
2018-07-19T18:03:59.689Z,3.30
2018-07-19T18:06:54.195Z,3.20
2018-07-19T18:09:32.882Z,3.13
2018-07-19T18:12:19.686Z,3.20
2018-07-19T18:14:57.095Z,3.03
2018-07-19T18:17:35.236Z,3.00
2018-07-19T18:20:13.957Z,3.33
2018-07-19T18:22:53.571Z,3.37
2018-07-19T18:25:34.496Z,3.13
2018-07-19T18:28:21.068Z,3.10
2018-07-19T18:31:00.425Z,2.87
2018-07-19T18:33:38.782Z,3.00
2018-07-19T18:36:18.044Z,3.10
2018-07-19T18:38:57.697Z,3.00
2018-07-19T18:41:39.885Z,3.20
2018-07-19T18:44:18.532Z,2.80
2018-07-19T18:46:56.961Z,3.20
2018-07-19T18:49:36.824Z,2.70
2018-07-19T18:52:14.824Z,2.70
2018-07-19T18:54:58.805Z,2.97
2018-07-19T18:57:43.402Z,3.00
2018-07-19T19:00:23.785Z,2.70
2018-07-19T19:03:05.277Z,3.22
2018-07-19T19:05:42.764Z,3.40
2018-07-19T19:08:23.708Z,3.63
2018-07-19T19:11:06.784Z,3.10
2018-07-19T19:13:44.199Z,3.23
2018-07-19T19:16:22.821Z,3.03
2018-07-19T19:19:02.998Z,3.07
2018-07-19T19:21:43.088Z,3.17
2018-07-19T19:24:22.452Z,3.57
2018-07-19T19:27:01.449Z,4.20
2018-07-19T19:29:39.432Z,3.63
2018-07-19T19:32:17.488Z,3.73
2018-07-19T19:34:56.156Z,3.63
2018-07-19T19:37:36.115Z,3.40
2018-07-19T19:40:14.278Z,4.10
2018-07-19T19:42:55.340Z,3.10
2018-07-19T19:45:34.412Z,4.00
2018-07-19T19:48:15.145Z,4.17
2018-07-19T19:50:55.135Z,3.63
2018-07-19T19:53:37.067Z,3.83
2018-07-19T19:56:21.155Z,3.53
2018-07-19T19:58:58.572Z,3.47
2018-07-19T20:01:39.723Z,3.90
2018-07-19T20:04:22.686Z,3.53
2018-07-19T20:07:29.825Z,3.37
2018-07-19T20:10:09.547Z,3.60
2018-07-19T20:12:53.612Z,3.13
2018-07-19T20:15:33.860Z,3.57
2018-07-19T20:18:22.785Z,3.50
2018-07-19T20:21:01.795Z,3.37
2018-07-19T20:23:42.375Z,3.70
2018-07-19T20:26:22.850Z,3.63
2018-07-19T20:29:03.656Z,3.03
2018-07-19T20:31:44.156Z,3.90
2018-07-19T20:34:23.713Z,4.07
2018-07-19T20:37:02.523Z,3.30
2018-07-19T20:39:44.963Z,3.33
2018-07-19T20:42:24.896Z,3.30
2018-07-19T20:45:10.540Z,3.60
2018-07-19T20:47:51.829Z,4.30
2018-07-19T20:50:24.731Z,4.73
2018-07-19T20:53:02.620Z,4.40
2018-07-19T20:55:38.425Z,4.37
2018-07-19T20:58:11.920Z,4.07
2018-07-19T21:00:50.247Z,3.93
2018-07-19T21:03:28.307Z,4.33
2018-07-19T21:06:02.936Z,4.60
2018-07-19T21:09:28.841Z,5.20
2018-07-19T21:12:27.537Z,5.20
2018-07-19T21:15:29.045Z,5.13
2018-07-19T21:18:10.914Z,4.97
2018-07-19T21:20:50.651Z,6.10
2018-07-19T21:23:34.616Z,4.60
2018-07-19T21:26:10.539Z,6.07
2018-07-19T21:28:45.425Z,4.20
2018-07-19T21:31:19.926Z,4.90
2018-07-19T21:34:09.784Z,4.57
2018-07-19T21:37:18.640Z,4.50
2018-07-19T21:40:01.227Z,5.23
2018-07-19T21:42:39.295Z,5.57
2018-07-19T21:45:22.976Z,4.93
2018-07-19T21:47:57.782Z,4.30
2018-07-19T21:50:35.541Z,5.07
2018-07-19T21:53:10.957Z,4.87
2018-07-19T21:55:44.526Z,4.90
2018-07-19T21:58:18.759Z,5.30
2018-07-19T22:01:09.288Z,4.93
2018-07-19T22:03:55.454Z,5.03
2018-07-19T22:06:43.337Z,5.00
2018-07-19T22:09:16.950Z,3.83
2018-07-19T22:11:52.731Z,4.43
2018-07-19T22:14:26.320Z,4.23
2018-07-19T22:16:58.985Z,5.40
2018-07-19T22:19:32.328Z,5.07
2018-07-19T22:22:04.775Z,5.60
2018-07-19T22:24:40.302Z,4.77
2018-07-19T22:27:17.169Z,4.30
2018-07-19T22:29:53.207Z,4.13
2018-07-19T22:32:28.075Z,4.40
2018-07-19T22:35:03.845Z,4.83
2018-07-19T22:37:38.542Z,5.00
2018-07-19T22:40:15.665Z,5.20
2018-07-19T22:42:50.271Z,4.97
2018-07-19T22:45:24.148Z,4.97
2018-07-19T22:47:59.007Z,4.30
2018-07-19T22:50:33.280Z,5.00
2018-07-19T22:53:07.052Z,4.83
2018-07-19T22:55:39.976Z,4.20
2018-07-19T22:58:12.831Z,4.80
2018-07-19T23:00:45.459Z,5.27
2018-07-19T23:03:18.715Z,5.22
2018-07-19T23:05:53.081Z,5.53
2018-07-19T23:08:26.004Z,5.23
2018-07-19T23:11:01.554Z,4.97
2018-07-19T23:13:36.664Z,5.30
2018-07-19T23:16:11.853Z,6.13
2018-07-19T23:18:46.202Z,6.30
2018-07-19T23:21:22.862Z,5.60
2018-07-19T23:23:58.438Z,6.40
2018-07-19T23:26:31.729Z,5.07
2018-07-19T23:29:07.142Z,5.70
2018-07-19T23:31:41.157Z,6.17
2018-07-19T23:34:16.911Z,6.47
2018-07-19T23:36:56.244Z,6.30
2018-07-19T23:39:40.289Z,6.13
2018-07-19T23:42:23.039Z,6.95
2018-07-19T23:45:19.480Z,6.83
2018-07-19T23:47:54.716Z,7.80
2018-07-19T23:50:28.323Z,7.50
2018-07-19T23:53:00.768Z,8.20
2018-07-19T23:55:33.440Z,6.73
2018-07-19T23:58:06.319Z,7.10
